Terminal Aerodrome Forecast
Issued by NWS

Home | Current Version | Previous Version | Text Only | Print | Product List | Glossary On
Versions: 1 2 3 4 5 6 7 8 9 10 11 12 13 14 15 16 17 18 19
000
FTUS41 KILN 181135
TAFLUK
TAF
KLUK 181135Z 1812/1912 00000KT 1/4SM FG VV002
     FM181230 00000KT 1SM BR SCT002
     FM181300 00000KT 3SM BR SKC
     FM181400 00000KT P6SM SKC
     FM181600 19008KT P6SM SKC
     FM182300 00000KT P6SM SKC
     FM190600 00000KT 4SM BR SKC=

USA.gov is the U.S. government's official web portal to all federal, state and local government web resources and services.